Time;durP1;ratioP1;P1;durP2;ratioP2;P2;SDS_P1;SDS_P2;PMS_P1;PMS_P2;Temp;Humidity;BMP_temperature;BMP_pressure;BME280_temperature;BME280_humidity;BME280_pressure;Samples;Min_cycle;Max_cycle;Signal;HPM_P1;HPM_P2
2023/08/07 00:01:21;;;;;;;2.30;2.10;;;19.10;89.60;;;21.95;57.02;100563.22;5016110;28;20699;-62
2023/08/07 00:03:48;;;;;;;2.33;1.90;;;19.00;89.90;;;21.93;56.96;100562.69;5015931;28;20199;-62
2023/08/07 00:06:16;;;;;;;2.40;2.00;;;19.00;90.00;;;21.90;56.71;100555.94;5014699;28;20707;-63
2023/08/07 00:08:43;;;;;;;3.10;2.27;;;19.00;90.10;;;21.87;56.75;100552.97;5015768;28;20203;-62
2023/08/07 00:11:11;;;;;;;3.33;2.47;;;19.00;90.20;;;21.85;56.88;100560.44;5015672;28;20221;-62
2023/08/07 00:13:38;;;;;;;6.13;2.50;;;19.00;90.20;;;21.82;57.00;100556.38;5015786;28;20613;-63
2023/08/07 00:16:05;;;;;;;4.73;2.60;;;18.90;90.40;;;21.82;57.36;100561.72;5015534;28;20195;-62
2023/08/07 00:18:32;;;;;;;3.20;2.80;;;18.90;90.50;;;21.80;57.62;100563.84;5015718;28;20194;-62
2023/08/07 00:21:00;;;;;;;4.63;2.97;;;18.90;90.70;;;21.81;57.77;100562.00;5015662;28;20239;-62
2023/08/07 00:23:27;;;;;;;3.93;2.67;;;18.90;90.90;;;21.80;57.92;100571.09;5015613;28;20265;-63
2023/08/07 00:25:54;;;;;;;3.40;2.80;;;18.80;90.90;;;21.82;57.56;100566.28;5015320;28;20230;-63
2023/08/07 00:28:22;;;;;;;4.33;3.23;;;18.90;91.10;;;21.82;58.11;100564.41;5015617;28;20719;-63
2023/08/07 00:30:49;;;;;;;4.33;3.27;;;18.80;91.10;;;21.82;58.15;100563.63;5015310;28;20523;-62
2023/08/07 00:33:16;;;;;;;5.97;3.40;;;18.80;91.20;;;21.81;58.03;100567.34;5014871;28;20191;-63
2023/08/07 00:35:44;;;;;;;3.63;3.00;;;18.80;91.30;;;21.80;58.29;100560.38;5015378;28;20282;-63
2023/08/07 00:38:11;;;;;;;4.80;2.87;;;18.80;91.30;;;21.80;58.51;100560.38;5021768;28;20685;-63
2023/08/07 00:40:39;;;;;;;5.10;2.97;;;18.80;91.30;;;21.80;58.43;100565.75;5034911;28;20671;-63
2023/08/07 00:43:07;;;;;;;6.07;3.57;;;18.80;91.40;;;21.79;58.67;100562.25;5034668;28;20214;-63
2023/08/07 00:45:42;;;;;;;4.27;3.07;;;18.90;91.40;;;21.76;58.54;100557.38;5034883;28;20290;-63
2023/08/07 00:48:10;;;;;;;5.83;3.80;;;18.80;91.40;;;21.75;58.44;100569.16;5034002;28;20193;-63
2023/08/07 00:50:38;;;;;;;4.20;2.80;;;18.80;91.50;;;21.74;58.84;100570.22;5035059;28;20241;-63
2023/08/07 00:53:14;;;;;;;3.10;2.80;;;18.80;91.50;;;21.73;58.63;100565.13;5058135;28;20210;-63
2023/08/07 00:55:42;;;;;;;3.40;3.07;;;18.80;91.50;;;21.75;58.72;100565.69;5035020;28;20644;-61
2023/08/07 00:58:09;;;;;;;5.00;3.80;;;18.80;91.50;;;21.75;58.68;100568.38;5034502;28;20187;-59
2023/08/07 01:00:38;;;;;;;4.77;2.90;;;18.80;91.50;;;21.75;58.45;100561.13;5034297;28;20344;-60
2023/08/07 01:03:06;;;;;;;4.63;3.07;;;18.80;91.90;;;21.76;59.02;100567.28;5034455;28;20248;-61
2023/08/07 01:05:34;;;;;;;4.67;3.27;;;18.80;91.50;;;21.76;58.57;100567.28;5034564;28;20195;-62
2023/08/07 01:08:02;;;;;;;3.53;3.00;;;18.80;91.50;;;21.75;58.55;100561.13;5034263;28;20191;-64
2023/08/07 01:10:57;;;;;;;4.57;3.50;;;18.80;91.50;;;21.71;58.62;100564.56;5034257;28;20210;-61
2023/08/07 01:13:32;;;;;;;4.53;3.13;;;18.80;91.50;;;21.71;58.63;100564.56;5034337;28;20185;-61
2023/08/07 01:16:10;;;;;;;5.10;3.17;;;18.80;91.50;;;21.66;58.56;100556.44;5034598;28;20630;-62
2023/08/07 01:18:40;;;;;;;3.57;3.27;;;18.80;91.40;;;21.66;58.92;100561.81;5034032;28;20194;-62
2023/08/07 01:21:18;;;;;;;7.73;3.73;;;18.70;91.40;;;21.62;58.66;100560.72;5034350;28;20271;-62
2023/08/07 01:23:47;;;;;;;3.77;3.43;;;18.70;91.40;;;21.61;58.43;100554.53;5034425;28;20232;-65
2023/08/07 01:26:15;;;;;;;3.67;3.30;;;18.70;91.40;;;21.58;58.99;100555.06;5034256;28;20218;-61
2023/08/07 01:28:50;;;;;;;3.73;3.37;;;18.70;91.40;;;21.55;58.89;100550.19;5033989;28;20294;-64
2023/08/07 01:31:22;;;;;;;4.70;3.63;;;18.60;91.50;;;21.51;58.59;100551.75;5033884;28;20216;-59
2023/08/07 01:34:02;;;;;;;4.20;3.43;;;18.60;91.50;;;21.46;58.59;100549.03;5033921;28;20195;-61
2023/08/07 01:36:30;;;;;;;5.13;3.87;;;18.60;91.60;;;21.44;59.09;100543.13;5032818;28;20226;-62
2023/08/07 01:39:01;;;;;;;4.63;3.67;;;18.60;91.50;;;21.39;58.67;100546.53;5033173;28;20209;-62
2023/08/07 01:41:29;;;;;;;4.30;3.90;;;18.60;91.60;;;21.39;59.41;100545.72;5033475;28;20252;-62
2023/08/07 01:43:57;;;;;;;4.17;3.73;;;18.50;91.60;;;21.37;59.27;100553.22;5033470;28;20202;-63
2023/08/07 01:46:24;;;;;;;4.17;3.37;;;18.50;91.70;;;21.35;59.16;100556.13;5033613;28;20286;-60
2023/08/07 01:48:51;;;;;;;4.97;3.63;;;18.50;91.70;;;21.35;59.09;100556.13;5033558;28;20190;-62
2023/08/07 01:51:18;;;;;;;4.80;3.60;;;18.50;91.80;;;21.37;59.33;100548.63;5033441;28;20216;-63
2023/08/07 01:53:47;;;;;;;6.90;3.40;;;18.50;91.90;;;21.38;59.02;100550.28;5032339;28;20183;-60
2023/08/07 01:56:15;;;;;;;3.90;3.50;;;18.50;91.80;;;21.38;58.99;100549.44;5033390;28;20196;-61
2023/08/07 01:58:43;;;;;;;5.33;3.40;;;18.50;91.80;;;21.35;59.36;100545.41;5033523;28;20310;-60
2023/08/07 02:01:10;;;;;;;4.90;3.40;;;18.50;91.90;;;21.35;58.76;100549.94;5033519;28;20214;-62
2023/08/07 02:03:37;;;;;;;6.90;3.87;;;18.40;91.80;;;21.32;59.14;100551.25;5033428;28;20224;-62
2023/08/07 02:06:04;;;;;;;3.43;3.13;;;18.40;91.80;;;21.30;58.91;100545.34;5032076;28;20218;-61
2023/08/07 02:08:31;;;;;;;4.77;3.50;;;18.40;91.70;;;21.28;59.69;100546.66;5032659;28;20234;-62
2023/08/07 02:11:01;;;;;;;4.17;3.47;;;18.40;91.80;;;21.26;59.27;100551.44;5033341;28;20217;-64
2023/08/07 02:13:29;;;;;;;4.47;3.47;;;18.40;91.80;;;21.25;59.03;100555.19;5033909;28;20209;-63
2023/08/07 02:15:56;;;;;;;5.20;3.90;;;18.40;91.90;;;21.25;59.23;100553.31;5033605;28;20618;-62
2023/08/07 02:18:23;;;;;;;4.50;4.00;;;18.30;91.90;;;21.24;59.57;100554.38;5033564;28;20527;-63
2023/08/07 02:20:50;;;;;;;5.13;3.80;;;18.30;91.90;;;21.23;59.66;100558.09;5033132;28;20237;-63
2023/08/07 02:23:17;;;;;;;5.27;3.67;;;18.30;92.00;;;21.23;59.65;100554.59;5033044;28;20220;-62
2023/08/07 02:25:45;;;;;;;4.47;3.50;;;18.30;92.10;;;21.22;59.88;100555.69;5033174;28;20269;-61
2023/08/07 02:28:12;;;;;;;4.23;3.67;;;18.30;92.10;;;21.21;59.27;100554.88;5033207;28;20191;-61
2023/08/07 02:30:40;;;;;;;5.27;4.37;;;18.30;92.10;;;21.20;59.70;100558.63;5032723;28;20218;-62
2023/08/07 02:33:07;;;;;;;4.97;3.67;;;18.30;92.10;;;21.20;59.55;100555.13;5033121;28;20190;-65
2023/08/07 02:35:34;;;;;;;5.40;3.80;;;18.30;92.20;;;21.18;59.64;100562.59;5033340;28;20244;-62
2023/08/07 02:38:01;;;;;;;6.30;3.93;;;18.30;92.20;;;21.17;59.83;100567.16;5033307;28;20203;-62
2023/08/07 02:40:30;;;;;;;4.60;3.97;;;18.20;92.20;;;21.17;59.57;100559.09;5033067;28;20214;-62
2023/08/07 02:42:57;;;;;;;6.90;3.53;;;18.20;92.20;;;21.16;60.05;100560.16;5033257;28;20639;-62
2023/08/07 02:45:24;;;;;;;5.57;3.53;;;18.30;92.30;;;21.13;59.44;100552.66;5033111;28;20224;-63
2023/08/07 02:47:52;;;;;;;3.73;3.40;;;18.20;92.20;;;21.11;59.95;100552.06;5033195;28;20186;-61
2023/08/07 02:50:19;;;;;;;4.43;4.03;;;18.20;92.20;;;;;;5033177;28;20214;-61
2023/08/07 02:52:46;;;;;;;4.73;3.50;;;18.20;92.30;;;21.07;59.64;100558.97;5035652;28;20179;-62
2023/08/07 02:55:13;;;;;;;5.27;3.80;;;18.20;92.20;;;21.06;60.30;100557.34;5035540;28;20229;-62
2023/08/07 02:57:40;;;;;;;3.40;2.93;;;18.20;92.30;;;21.06;59.73;100551.97;5035529;28;20255;-61
2023/08/07 03:00:09;;;;;;;6.60;3.70;;;18.20;92.30;;;21.09;60.31;100545.31;5032711;28;20738;-61
2023/08/07 03:02:36;;;;;;;5.30;3.63;;;18.20;92.40;;;21.08;60.10;100538.38;5032637;28;20697;-62
2023/08/07 03:05:05;;;;;;;3.60;3.30;;;18.20;92.40;;;21.07;60.21;100548.25;5032930;28;20217;-62
2023/08/07 03:07:32;;;;;;;4.83;3.80;;;18.10;92.30;;;21.06;59.87;100540.50;5032753;28;20198;-62
2023/08/07 03:09:59;;;;;;;6.47;3.37;;;18.10;92.30;;;21.06;60.28;100540.50;5032505;28;20570;-62
2023/08/07 03:12:26;;;;;;;4.60;2.97;;;18.10;92.30;;;21.05;59.64;100528.16;5032647;28;20187;-61
2023/08/07 03:14:53;;;;;;;5.63;3.30;;;18.10;92.30;;;21.04;60.12;100529.19;5032527;28;20191;-61
2023/08/07 03:17:20;;;;;;;6.00;3.90;;;18.10;92.40;;;21.03;59.94;100530.25;5032732;28;20195;-62
2023/08/07 03:19:49;;;;;;;4.40;3.87;;;18.10;92.30;;;21.00;60.37;100528.88;5033156;28;20595;-63
2023/08/07 03:22:17;;;;;;;5.23;3.57;;;18.10;92.30;;;21.00;60.33;100530.72;5036215;28;20674;-62
2023/08/07 03:24:47;;;;;;;4.60;3.80;;;18.10;92.40;;;20.97;60.21;100539.28;5036061;28;20237;-62
2023/08/07 03:27:14;;;;;;;4.30;3.40;;;18.10;92.30;;;20.96;60.46;100546.50;5035885;28;20655;-62
2023/08/07 03:29:41;;;;;;;7.03;3.90;;;18.10;92.30;;;20.99;60.51;100543.28;5036001;28;20210;-61
2023/08/07 03:32:11;;;;;;;4.30;3.67;;;18.10;92.40;;;21.01;60.42;100538.53;5051308;28;20528;-63
2023/08/07 03:34:38;;;;;;;4.20;3.50;;;18.10;92.50;;;21.02;59.91;100540.13;5036998;28;20222;-63
2023/08/07 03:37:05;;;;;;;3.77;3.10;;;18.10;92.50;;;21.04;59.92;100527.31;5046133;28;20225;-63
2023/08/07 03:39:34;;;;;;;4.17;3.77;;;18.10;92.50;;;21.06;60.42;100540.50;5036032;28;20558;-61
2023/08/07 03:42:01;;;;;;;3.97;3.57;;;18.10;92.40;;;21.07;60.18;100536.75;5035380;28;20286;-61
2023/08/07 03:44:28;;;;;;;4.10;3.50;;;18.10;92.40;;;21.08;59.80;100541.88;5035698;28;20222;-64
2023/08/07 03:46:57;;;;;;;5.37;3.97;;;18.10;92.40;;;21.08;59.79;100549.91;5035738;28;20277;-62
2023/08/07 03:49:24;;;;;;;5.03;4.00;;;18.20;92.40;;;21.10;59.81;100553.13;5035866;28;20214;-64
2023/08/07 03:51:51;;;;;;;4.00;2.80;;;18.20;92.30;;;21.11;59.96;100562.75;5034352;28;20200;-64
2023/08/07 03:54:18;;;;;;;3.80;3.40;;;18.20;92.30;;;21.14;59.70;100558.78;5035816;28;20191;-62
2023/08/07 03:56:47;;;;;;;3.40;3.10;;;18.20;92.30;;;21.17;60.03;100553.75;5035844;28;20191;-62
2023/08/07 03:59:15;;;;;;;3.10;2.50;;;18.20;92.30;;;21.20;59.58;100555.94;5035414;28;20233;-60
2023/08/07 04:01:42;;;;;;;2.47;2.27;;;18.20;92.40;;;21.21;60.27;100562.91;5035937;28;20187;-62
2023/08/07 04:04:09;;;;;;;2.83;2.50;;;18.20;92.50;;;21.22;60.01;100553.81;5035357;28;20218;-62
2023/08/07 04:06:36;;;;;;;4.27;2.47;;;18.30;92.60;;;21.22;59.90;100558.38;5035245;28;20190;-63
2023/08/07 04:09:03;;;;;;;2.30;2.00;;;18.30;92.70;;;21.20;60.35;100553.28;5035067;28;20193;-62
2023/08/07 04:11:30;;;;;;;3.27;2.27;;;18.20;92.60;;;21.18;60.12;100563.38;5035525;28;20214;-62
2023/08/07 04:13:58;;;;;;;3.10;2.53;;;18.30;92.60;;;21.18;60.36;100560.72;5035228;28;20187;-61
2023/08/07 04:16:25;;;;;;;2.00;1.77;;;18.30;92.60;;;21.17;60.06;100555.63;5035099;28;20273;-62
2023/08/07 04:18:52;;;;;;;1.70;1.60;;;18.30;92.50;;;21.16;59.97;100560.16;5034844;28;20282;-63
2023/08/07 04:21:20;;;;;;;3.40;2.13;;;18.30;92.70;;;21.13;59.73;100563.34;5034769;28;20187;-64
2023/08/07 04:23:47;;;;;;;2.00;1.80;;;18.20;92.70;;;21.11;59.80;100552.06;5034878;28;20206;-62
2023/08/07 04:26:14;;;;;;;2.37;1.97;;;18.20;92.30;;;21.11;60.07;100553.94;5034994;28;20197;-63
2023/08/07 04:28:41;;;;;;;4.90;4.30;;;18.20;92.30;;;;;;5034755;28;20187;-61
2023/08/07 04:31:09;;;;;;;3.00;1.60;;;18.20;92.30;;;21.12;59.75;100559.03;5034275;28;20293;-63
2023/08/07 04:33:36;;;;;;;3.00;1.70;;;18.20;92.30;;;21.13;59.95;100559.84;5033753;28;20187;-62
2023/08/07 04:36:04;;;;;;;1.97;1.77;;;18.20;92.20;;;21.14;59.63;100556.91;5034728;28;20195;-63
2023/08/07 04:38:31;;;;;;;2.73;1.80;;;18.20;92.20;;;21.14;59.84;100564.94;5034479;28;20691;-62
2023/08/07 04:40:58;;;;;;;1.43;1.30;;;18.20;92.10;;;21.14;59.78;100561.47;5033969;28;20584;-61
2023/08/07 04:43:25;;;;;;;1.97;1.57;;;18.20;92.20;;;21.15;59.77;100574.63;5034441;28;20222;-63
2023/08/07 04:45:53;;;;;;;3.30;1.70;;;18.20;92.10;;;21.15;59.66;100574.63;5034235;28;20285;-61
2023/08/07 04:48:25;;;;;;;1.90;1.80;;;18.20;92.00;;;21.14;59.50;100581.00;5034362;28;20660;-63
2023/08/07 04:50:52;;;;;;;2.53;2.00;;;18.20;92.30;;;21.14;59.46;100575.66;5034576;28;20211;-63
2023/08/07 04:53:19;;;;;;;3.57;2.00;;;18.20;92.00;;;21.17;59.51;100585.06;5033231;28;20289;-63
2023/08/07 04:55:46;;;;;;;1.73;1.63;;;18.10;91.90;;;21.19;58.97;100574.91;5033987;28;20263;-63
2023/08/07 04:58:13;;;;;;;3.73;2.20;;;18.20;92.00;;;21.21;59.40;100587.00;5034246;28;20289;-63
2023/08/07 05:00:40;;;;;;;3.73;2.37;;;18.20;91.90;;;21.25;58.95;100590.00;5034263;28;20242;-63
2023/08/07 05:03:07;;;;;;;2.20;2.10;;;18.20;91.90;;;21.25;59.09;100588.13;5034638;28;20218;-61
2023/08/07 05:05:36;;;;;;;3.37;1.80;;;18.20;91.80;;;21.27;58.64;100591.38;5034486;28;20202;-63
2023/08/07 05:08:03;;;;;;;4.13;2.27;;;18.20;91.70;;;21.28;58.71;100587.63;5034498;28;20214;-63
2023/08/07 05:10:30;;;;;;;2.30;1.87;;;18.20;91.70;;;21.31;58.49;100597.84;5033889;28;20309;-63
2023/08/07 05:12:58;;;;;;;2.20;1.67;;;18.30;91.80;;;21.32;58.62;100599.44;5034305;28;20233;-63
2023/08/07 05:15:25;;;;;;;4.60;1.87;;;18.30;91.70;;;21.34;58.74;100600.03;5034414;28;20542;-62
2023/08/07 05:17:53;;;;;;;2.03;1.40;;;18.30;91.70;;;21.37;58.83;100604.09;5034048;28;20186;-62
2023/08/07 05:20:20;;;;;;;1.67;1.40;;;18.30;91.60;;;21.37;58.13;100596.84;5033710;28;20214;-62
2023/08/07 05:22:49;;;;;;;2.63;1.67;;;18.30;91.50;;;21.37;58.63;100591.50;5033849;28;20248;-63
2023/08/07 05:25:17;;;;;;;4.70;1.67;;;18.30;91.40;;;21.39;58.29;100597.44;5033529;28;20264;-62
2023/08/07 05:27:45;;;;;;;2.20;1.70;;;18.30;91.40;;;21.40;58.36;100591.00;5014321;28;20532;-63
2023/08/07 05:30:14;;;;;;;2.90;2.20;;;18.30;91.50;;;21.43;58.31;100603.91;5014056;28;20237;-63
2023/08/07 05:32:41;;;;;;;4.17;2.33;;;18.40;91.40;;;21.43;58.39;100603.09;5014487;28;20195;-62
2023/08/07 05:35:08;;;;;;;2.83;1.90;;;18.40;91.30;;;21.43;58.36;100614.63;5014258;28;20219;-61
2023/08/07 05:37:36;;;;;;;2.70;1.93;;;18.40;91.20;;;21.42;58.26;100621.00;5013896;28;20250;-61
2023/08/07 05:40:06;;;;;;;2.90;1.80;;;18.40;91.30;;;21.40;57.60;100620.47;5013656;28;20346;-62
2023/08/07 05:42:34;;;;;;;2.03;1.80;;;18.40;91.20;;;21.38;57.79;100617.22;5031844;28;20206;-63
2023/08/07 05:45:01;;;;;;;3.13;2.00;;;18.40;91.20;;;21.38;58.10;100613.72;5033508;28;20210;-62
2023/08/07 05:47:29;;;;;;;3.40;1.90;;;18.40;91.20;;;21.39;57.61;100621.53;5033354;28;20217;-62
2023/08/07 05:49:56;;;;;;;2.50;1.90;;;18.40;91.20;;;21.37;57.49;100625.50;5033518;28;20252;-62
2023/08/07 05:52:23;;;;;;;2.13;1.90;;;18.30;91.10;;;21.37;57.79;100633.56;5033156;28;20233;-63
2023/08/07 05:54:50;;;;;;;1.97;1.60;;;18.40;91.20;;;21.37;58.18;100628.97;5033242;28;20785;-61
2023/08/07 05:57:19;;;;;;;2.93;2.30;;;18.40;91.20;;;21.42;57.72;100630.91;5033123;28;20602;-62
2023/08/07 05:59:46;;;;;;;3.53;1.70;;;18.40;91.20;;;21.45;57.55;100631.25;5032898;28;20236;-63
2023/08/07 06:02:13;;;;;;;3.10;1.47;;;18.40;91.10;;;21.49;57.65;100620.81;5033136;28;20281;-62
2023/08/07 06:04:40;;;;;;;4.07;1.70;;;18.40;91.10;;;21.53;57.49;100621.97;5033523;28;20210;-63
2023/08/07 06:07:07;;;;;;;1.67;1.57;;;18.40;91.00;;;21.54;57.19;100624.38;5033691;28;20231;-63
2023/08/07 06:09:35;;;;;;;1.60;1.30;;;18.40;90.80;;;21.57;56.83;100623.06;5032959;28;20264;-63
2023/08/07 06:12:03;;;;;;;3.23;1.50;;;18.50;90.80;;;21.61;56.98;100618.03;5033458;28;20199;-63
2023/08/07 06:14:32;;;;;;;2.47;1.50;;;18.50;90.70;;;21.66;57.21;100628.81;5033128;28;20691;-62
2023/08/07 06:17:01;;;;;;;1.90;1.03;;;18.50;90.70;;;21.69;56.97;100621.09;5033302;28;20187;-63
2023/08/07 06:19:28;;;;;;;5.03;1.83;;;18.50;90.70;;;21.73;56.72;100622.19;5032904;28;20257;-63
2023/08/07 06:21:59;;;;;;;4.77;1.80;;;18.60;90.70;;;21.78;56.34;100624.94;5032831;28;20719;-63
2023/08/07 06:24:27;;;;;;;6.00;1.50;;;18.60;90.50;;;21.83;56.52;100626.88;5033013;28;20221;-63
2023/08/07 06:26:54;;;;;;;5.07;1.70;;;18.70;90.60;;;21.88;56.40;100621.59;5032931;28;20633;-61
2023/08/07 06:29:21;;;;;;;3.93;1.43;;;18.70;90.50;;;21.93;56.22;100618.97;5035412;28;20296;-63
2023/08/07 06:31:50;;;;;;;3.40;1.73;;;18.80;90.50;;;22.00;56.62;100619.59;5034780;28;20698;-62
2023/08/07 06:34:17;;;;;;;5.03;1.97;;;18.80;90.50;;;22.09;56.28;100626.09;5033209;28;20285;-62
2023/08/07 06:36:44;;;;;;;4.47;1.80;;;18.90;90.60;;;22.12;56.33;100626.44;5032475;28;20191;-63
2023/08/07 06:39:11;;;;;;;3.83;2.23;;;19.00;90.50;;;22.15;56.20;100631.28;5032695;28;20617;-62
2023/08/07 06:41:39;;;;;;;3.97;2.00;;;19.00;90.50;;;22.18;56.20;100628.09;5031558;28;20198;-66
2023/08/07 06:44:06;;;;;;;4.10;1.90;;;19.10;90.40;;;22.21;56.22;100634.81;5032903;28;20218;-62
2023/08/07 06:46:33;;;;;;;4.73;2.00;;;19.10;90.40;;;22.26;56.10;100632.19;5033240;28;20190;-62
2023/08/07 06:49:01;;;;;;;2.17;1.60;;;19.10;90.20;;;22.32;55.65;100625.81;5032042;28;20210;-61
2023/08/07 06:51:28;;;;;;;5.10;1.93;;;19.20;90.30;;;22.35;56.03;100632.53;5032607;28;20189;-65
2023/08/07 06:53:55;;;;;;;4.43;2.37;;;19.20;90.10;;;22.33;55.92;100638.16;5033560;28;20273;-61
2023/08/07 06:56:22;;;;;;;5.53;2.50;;;19.30;90.10;;;22.33;55.83;100651.56;5035984;28;20202;-60
2023/08/07 06:58:49;;;;;;;3.83;2.27;;;19.20;90.10;;;22.30;55.74;100652.06;5035941;28;20289;-63
2023/08/07 07:01:16;;;;;;;5.27;2.60;;;19.30;90.30;;;22.30;55.79;100649.38;5036550;28;20217;-62
2023/08/07 07:03:46;;;;;;;8.13;3.53;;;19.20;90.20;;;22.32;56.00;100652.63;5036204;28;20737;-62
2023/08/07 07:06:15;;;;;;;8.47;3.23;;;19.20;90.20;;;22.35;56.08;100654.78;5036409;28;20659;-63
2023/08/07 07:08:42;;;;;;;5.63;2.90;;;19.30;90.30;;;22.36;56.27;100648.38;5036171;28;20191;-63
2023/08/07 07:11:09;;;;;;;6.07;2.50;;;19.30;90.30;;;22.36;55.66;100650.25;5036354;28;20286;-61
2023/08/07 07:13:37;;;;;;;4.17;2.37;;;19.30;90.10;;;22.35;55.74;100651.28;5036256;28;20553;-63
2023/08/07 07:16:04;;;;;;;4.70;1.93;;;19.30;90.00;;;22.35;55.72;100662.84;5036210;28;20190;-62
2023/08/07 07:18:31;;;;;;;6.93;2.67;;;19.30;90.10;;;22.34;56.05;100652.38;5035685;28;20203;-62
2023/08/07 07:21:00;;;;;;;4.30;2.33;;;19.20;90.20;;;22.32;55.92;100663.38;5035831;28;20219;-62
2023/08/07 07:23:28;;;;;;;5.73;2.60;;;19.20;90.20;;;22.35;56.05;100659.34;5035932;28;20197;-61
2023/08/07 07:25:56;;;;;;;4.07;2.17;;;19.20;90.30;;;22.42;56.05;100658.09;5036367;28;20274;-61
2023/08/07 07:28:24;;;;;;;5.60;2.33;;;19.30;90.40;;;22.53;55.98;100656.31;5036094;28;20220;-61
2023/08/07 07:30:51;;;;;;;2.63;2.30;;;19.30;90.40;;;22.64;55.88;100666.09;5036141;28;20261;-63
2023/08/07 07:33:18;;;;;;;7.27;2.50;;;19.40;90.40;;;22.74;55.52;100661.63;5036158;28;20193;-61
2023/08/07 07:35:45;;;;;;;8.33;3.07;;;19.40;90.30;;;22.83;55.11;100670.81;5033292;28;20276;-62
2023/08/07 07:38:12;;;;;;;6.60;2.83;;;19.50;90.00;;;22.95;54.99;100669.81;5033602;28;20233;-63
2023/08/07 07:40:41;;;;;;;9.73;3.13;;;19.60;90.00;;;23.09;54.42;100679.06;5034858;28;20242;-64
2023/08/07 07:43:08;;;;;;;10.17;3.53;;;19.60;88.80;;;23.16;53.30;100679.63;5035444;28;20248;-63
2023/08/07 07:45:35;;;;;;;7.70;3.27;;;19.70;88.20;;;23.20;53.59;100675.38;5030702;28;20230;-64
2023/08/07 07:48:03;;;;;;;7.47;3.40;;;19.80;88.00;;;23.33;53.26;100669.53;5033667;28;20257;-62
2023/08/07 07:50:31;;;;;;;6.27;3.23;;;19.90;87.80;;;23.49;52.58;100679.34;5031459;28;20605;-63
2023/08/07 07:52:58;;;;;;;10.97;3.97;;;20.00;87.50;;;23.67;52.31;100673.53;5034966;28;20210;-63
2023/08/07 07:55:25;;;;;;;6.50;2.80;;;20.10;86.50;;;24.19;51.98;100676.16;5035461;28;20687;-63
2023/08/07 07:57:55;;;;;;;6.33;3.27;;;20.30;86.50;;;24.79;50.25;100672.75;5034846;28;20225;-62
2023/08/07 08:00:26;;;;;;;10.33;3.20;;;20.60;86.20;;;25.19;47.91;100682.69;5030072;28;20226;-63
2023/08/07 08:02:53;;;;;;;10.87;3.60;;;20.90;82.80;;;25.47;47.00;100688.31;5034487;28;20528;-63
2023/08/07 08:05:21;;;;;;;6.40;3.37;;;21.20;81.90;;;25.65;46.94;100696.88;5033711;28;20301;-63
2023/08/07 08:07:49;;;;;;;14.53;3.97;;;21.50;80.90;;;25.64;46.18;100697.97;5035124;28;20659;-63
2023/08/07 08:10:16;;;;;;;10.47;3.80;;;21.70;78.60;;;25.50;45.61;100700.44;5034499;28;20288;-63
2023/08/07 08:12:43;;;;;;;10.27;3.60;;;21.80;78.10;;;25.38;45.56;100692.63;5016936;28;20209;-63
2023/08/07 08:15:12;;;;;;;9.30;3.93;;;21.80;76.00;;;25.20;44.94;100701.25;5034959;28;20651;-64
2023/08/07 08:17:39;;;;;;;13.27;3.73;;;21.70;74.80;;;25.20;44.52;100695.09;5034483;28;20198;-62
2023/08/07 08:20:08;;;;;;;12.47;4.10;;;21.70;75.10;;;25.71;44.45;100698.47;5024281;28;20214;-62
2023/08/07 08:22:35;;;;;;;9.50;3.43;;;21.80;75.10;;;26.62;42.06;100696.94;5029960;28;20259;-62
2023/08/07 08:25:04;;;;;;;8.43;3.27;;;22.00;73.60;;;27.56;40.33;100684.75;5034202;28;20368;-62
2023/08/07 08:27:32;;;;;;;8.07;3.00;;;22.50;72.10;;;28.25;38.72;100696.88;5033612;28;20198;-62
2023/08/07 08:29:59;;;;;;;8.63;3.37;;;23.00;70.30;;;28.89;36.88;100691.56;5030341;28;20234;-62
2023/08/07 08:32:27;;;;;;;8.27;2.87;;;23.60;67.30;;;29.62;35.28;100694.28;5033395;28;20190;-63
2023/08/07 08:34:55;;;;;;;6.83;3.27;;;24.00;65.60;;;29.71;34.72;100691.69;5034448;28;20201;-63
2023/08/07 08:37:22;;;;;;;5.63;2.60;;;24.40;64.20;;;29.96;35.02;100699.31;5034397;28;20203;-64
2023/08/07 08:39:50;;;;;;;8.13;3.67;;;24.80;62.90;;;29.66;34.60;100702.66;5033205;28;20249;-63
2023/08/07 08:42:20;;;;;;;4.20;2.00;;;24.90;61.00;;;29.17;35.55;100698.66;5025408;28;20199;-63
2023/08/07 08:44:52;;;;;;;9.43;2.60;;;24.90;61.00;;;28.60;35.36;100710.72;5024066;28;20310;-62
2023/08/07 08:47:25;;;;;;;6.53;2.90;;;24.70;59.70;;;28.12;35.90;100714.66;5034035;28;20198;-65
2023/08/07 08:50:04;;;;;;;10.37;3.00;;;24.50;60.00;;;27.69;36.30;100716.53;5029411;28;20228;-63
2023/08/07 08:52:32;;;;;;;10.50;2.73;;;24.10;59.70;;;27.51;36.26;100709.94;5031912;28;20277;-63
2023/08/07 08:55:01;;;;;;;6.83;2.63;;;23.90;60.20;;;27.65;36.52;100710.06;5031929;28;20249;-64
2023/08/07 08:57:30;;;;;;;8.53;2.70;;;23.70;61.20;;;28.26;36.04;100723.69;5031446;28;20198;-66
2023/08/07 08:59:57;;;;;;;7.20;2.50;;;23.80;62.10;;;29.18;35.16;100713.84;5031597;28;20301;-62
2023/08/07 09:02:25;;;;;;;6.53;2.70;;;24.00;62.80;;;30.50;33.77;100720.94;5031553;28;20198;-63
2023/08/07 09:04:54;;;;;;;6.30;4.03;;;24.50;61.90;;;31.36;31.88;100721.53;5028248;28;20218;-64
2023/08/07 09:07:23;;;;;;;11.33;3.37;;;25.10;59.30;;;31.31;30.89;100718.94;5031358;28;20273;-64
2023/08/07 09:09:50;;;;;;;6.50;3.33;;;25.50;57.70;;;30.65;31.13;100731.47;5030665;28;20571;-62
2023/08/07 09:12:25;;;;;;;7.60;4.40;;;25.50;56.80;;;29.84;32.72;100737.03;5032979;28;20325;-63
2023/08/07 09:14:57;;;;;;;6.37;3.40;;;25.40;57.40;;;29.00;34.78;100747.25;5029952;28;20663;-64
2023/08/07 09:17:29;;;;;;;8.33;3.07;;;25.10;58.50;;;28.07;37.25;100779.69;5033429;28;20336;-62
2023/08/07 09:19:59;;;;;;;6.73;3.03;;;24.50;62.00;;;27.11;39.30;100807.63;5028101;28;20230;-63
2023/08/07 09:22:26;;;;;;;6.77;3.37;;;23.90;64.40;;;26.23;40.74;100812.16;5037402;28;20746;-64
2023/08/07 09:24:54;;;;;;;7.50;3.70;;;23.10;66.80;;;25.45;43.31;100806.41;5033727;28;20324;-65
2023/08/07 09:27:26;;;;;;;9.60;4.07;;;22.50;69.20;;;24.86;44.20;100789.09;5037846;28;20723;-64
2023/08/07 09:29:55;;;;;;;8.07;3.50;;;22.10;70.10;;;24.43;45.17;100797.59;5032244;28;20227;-62
2023/08/07 09:32:24;;;;;;;7.07;3.30;;;21.60;71.60;;;24.31;45.32;100788.94;5028237;28;20708;-63
2023/08/07 09:34:51;;;;;;;9.17;3.27;;;21.30;73.00;;;24.51;45.17;100792.47;5023448;28;20206;-63
2023/08/07 09:37:20;;;;;;;7.57;3.23;;;21.10;74.20;;;25.53;44.66;100786.19;5036992;28;20249;-63
2023/08/07 09:39:47;;;;;;;9.70;4.77;;;21.20;75.80;;;27.05;42.65;100791.75;5023705;28;20254;-62
2023/08/07 09:42:16;;;;;;;16.90;4.33;;;21.60;76.50;;;28.66;38.83;100790.84;5026608;28;20218;-63
2023/08/07 09:44:46;;;;;;;10.73;3.30;;;22.20;74.20;;;30.01;36.69;100788.84;5017989;28;20622;-63
2023/08/07 09:47:24;;;;;;;7.50;3.90;;;22.90;72.20;;;31.26;33.30;100787.91;5025078;28;20454;-64
2023/08/07 09:49:56;;;;;;;8.43;3.43;;;23.60;68.10;;;32.29;31.74;100784.88;5028024;28;20238;-64
2023/08/07 09:52:26;;;;;;;7.93;3.13;;;24.40;66.20;;;33.00;29.90;100792.47;5024895;28;20195;-64
2023/08/07 09:54:57;;;;;;;10.80;3.50;;;25.10;62.20;;;33.41;29.27;100784.56;5026437;28;20198;-64
2023/08/07 09:57:26;;;;;;;6.83;3.53;;;25.70;60.00;;;33.66;29.01;100779.38;5030018;28;20190;-64
2023/08/07 09:59:54;;;;;;;6.07;2.93;;;26.20;58.70;;;33.90;27.99;100788.56;5011941;28;20246;-63
2023/08/07 10:02:21;;;;;;;9.40;3.57;;;26.60;55.80;;;33.88;26.88;100793.56;5029993;28;20206;-64
2023/08/07 10:04:50;;;;;;;8.10;3.50;;;26.90;53.40;;;32.92;27.30;100784.31;5023605;28;20227;-63
2023/08/07 10:07:17;;;;;;;4.93;2.90;;;26.80;51.30;;;31.71;28.29;100788.69;5027232;28;20194;-63
2023/08/07 10:09:47;;;;;;;6.43;2.97;;;26.70;50.60;;;30.59;29.00;100795.25;5027735;28;20218;-65
2023/08/07 10:12:16;;;;;;;8.10;3.27;;;26.30;49.50;;;29.58;29.41;100803.75;5030226;28;20263;-63
2023/08/07 10:14:45;;;;;;;5.57;2.40;;;25.70;48.50;;;28.66;30.78;100806.31;5030025;28;20619;-63
2023/08/07 10:17:13;;;;;;;4.93;2.80;;;25.20;49.80;;;27.94;31.85;100804.72;5029918;28;20199;-64